Latest Weather Observations for Camooweal

IDD60801

Issued at 3:31 pm CST Wednesday 24 August 2016 (issued every 30 minutes, with the page automatically refreshed every 10 minutes)

About weather observations | Map of weather stations | Latest weather observations for NT | Other Formats
Station Details ID: 037010 Name: CAMOOWEAL TOWNSHIP Lat: -19.92 Lon: 138.12 Height: 231.2 m
Data from the previous 72 hours. | See also: Recent months at Camooweal
Date/Time
CST
Temp
°C
App
Temp
°C
Dew
Point
°C
Rel
Hum
%
Delta-T
°C
Wind Press
QNH
hPa
Press
MSL
hPa
Rain since
9am
mm
Dir  Spd
km/h
Gust
km/h
Spd
kts
Gust
kts
24/03:00pm 22.2 18.1 12.7 55 5.5 S 26 35 14 19 1011.9 1011.2 0.2
24/02:30pm 22.0 17.7 13.1 57 5.2 S 28 39 15 21 1012.0 1011.3 0.2
24/02:00pm 22.2 17.5 14.3 61 4.7 S 32 44 17 24 1012.2 1011.5 0.2
24/01:30pm 22.0 17.6 14.1 61 4.7 S 30 39 16 21 1012.5 1011.8 0.2
24/01:00pm 21.4 17.8 14.1 63 4.3 S 26 35 14 19 1012.9 1012.2 0.2
24/12:30pm 20.4 16.5 14.3 68 3.6 S 28 39 15 21 1013.3 1012.6 0.2
24/12:00pm 19.3 15.0 14.3 73 2.9 S 30 39 16 21 1013.7 1013.0 0.0
24/11:30am 18.7 14.1 14.6 77 2.4 S 32 39 17 21 1014.1 1013.5 0.0
24/11:00am 19.1 15.2 14.4 74 2.7 S 28 41 15 22 1014.3 1013.7 0.0
24/10:30am 19.0 14.7 14.3 74 2.7 S 30 41 16 22 1014.5 1013.9 0.0
24/10:00am 17.2 13.3 14.5 84 1.6 S 28 35 15 19 1015.2 1014.5 0.0
24/09:30am 17.7 13.9 14.6 82 1.8 S 28 39 15 21 1015.2 1014.5 0.0
24/09:00am 17.0 12.3 14.3 84 1.6 S 32 41 17 22 1014.9 1014.3 0.0
24/08:30am 16.8 12.9 14.3 85 1.4 S 28 39 15 21 1014.7 1014.1 13.8
24/08:00am 16.7 13.8 15.1 90 0.9 S 24 33 13 18 1014.2 1013.6 13.8
24/07:30am 16.1 13.0 14.5 90 0.9 S 24 32 13 17 1014.0 1013.4 13.8
24/07:00am 15.9 12.4 14.4 91 0.9 S 26 33 14 18 1013.6 1012.9 13.8
24/06:30am 16.0 13.3 14.7 92 0.8 S 22 30 12 16 1012.9 1012.2 13.8
24/06:00am 16.0 12.6 14.7 92 0.8 S 26 35 14 19 1012.3 1011.6 13.8
24/05:30am 16.5 13.7 15.4 93 0.6 S 24 32 13 17 1011.8 1011.1 13.8
24/05:00am 16.6 13.1 15.5 93 0.6 S 28 39 15 21 1011.5 1010.8 13.8
24/04:30am 17.1 13.4 16.1 94 0.6 SSW 30 37 16 20 1010.8 1010.1 13.8
24/04:00am 18.1 16.0 17.1 94 0.6 S 24 32 13 17 1010.4 1009.8 13.8
24/03:30am 18.5 17.1 18.0 97 0.3 SSW 22 28 12 15 1010.1 1009.5 13.8
24/03:00am 18.6 17.2 17.9 96 0.4 S 22 28 12 15 1009.7 1009.0 13.8
24/02:30am 19.0 18.1 18.3 96 0.4 SSW 20 26 11 14 1009.8 1009.1 13.8
24/02:00am 19.4 17.5 18.6 95 0.5 S 26 37 14 20 1009.1 1008.4 13.8
24/01:30am 20.1 19.8 19.6 97 0.3 S 20 28 11 15 1009.4 1008.7 13.8
24/01:00am 20.4 20.2 19.7 96 0.4 S 20 28 11 15 1008.7 1008.0 13.8
24/12:30am 20.4 22.9 20.2 99 0.1 SW 7 11 4 6 1009.4 1008.7 13.8
24/12:00am 19.6 21.8 19.3 98 0.2 SE 6 9 3 5 1008.8 1008.1 13.8
 
Date/Time
CST
Temp
°C
App
Temp
°C
Dew
Point
°C
Rel
Hum
%
Delta-T
°C
Wind Press
QNH
hPa
Press
MSL
hPa
Rain since
9am
mm
Dir  Spd
km/h
Gust
km/h
Spd
kts
Gust
kts
23/11:30pm 20.1 23.6 19.6 97 0.3 CALM 0 0 0 0 1008.6 1007.9 13.8
23/11:00pm 20.5 23.1 20.0 97 0.3 SW 6 9 3 5 1008.4 1007.7 13.8
23/10:30pm 21.2 23.8 20.4 95 0.5 N 7 9 4 5 1008.1 1007.4 13.8
23/10:00pm 21.5 24.1 20.5 94 0.7 N 7 11 4 6 1008.8 1008.1 12.2
23/09:30pm 21.3 24.7 20.1 93 0.8 WNW 2 6 1 3 1008.3 1007.6 12.2
23/09:00pm 21.8 24.6 20.4 92 0.9 N 6 9 3 5 1008.3 1007.6 12.2
23/08:30pm 22.2 24.3 21.0 93 0.8 N 11 17 6 9 1008.0 1007.3 12.2
23/08:00pm 22.7 23.3 21.3 92 0.9 NNE 20 26 11 14 1007.9 1007.2 12.2
23/07:30pm 22.5 24.2 21.0 91 1.0 NNE 13 17 7 9 1007.5 1006.8 12.2
23/07:00pm 22.7 24.4 21.0 90 1.1 NNE 13 17 7 9 1007.2 1006.5 12.2
23/06:30pm 22.6 24.4 21.2 92 0.9 NNE 13 19 7 10 1006.7 1006.0 12.2
23/06:00pm 22.7 23.8 21.3 92 0.9 NNE 17 20 9 11 1006.5 1005.8 12.2
23/05:30pm 23.3 25.0 21.6 90 1.1 NNE 15 22 8 12 1006.2 1005.4 12.2
23/05:00pm 23.0 24.2 21.5 91 1.0 N 17 26 9 14 1006.5 1005.8 12.2
23/04:30pm 22.8 24.1 20.9 89 1.3 N 15 24 8 13 1006.3 1005.5 11.4
23/04:00pm 24.0 24.1 19.9 78 2.7 N 19 24 10 13 1005.7 1005.0 9.0
23/03:30pm 23.7 24.3 21.0 85 1.8 N 19 28 10 15 1006.2 1005.4 9.0
23/03:00pm 22.9 23.7 21.4 91 1.0 N 19 28 10 15 1006.0 1005.3 9.0
23/02:30pm 22.0 23.0 21.0 94 0.7 N 17 24 9 13 1006.4 1005.7 9.0
23/02:00pm 20.9 22.7 19.6 92 0.8 NW 9 17 5 9 1006.9 1006.2 7.4
23/01:30pm 24.3 23.3 18.9 72 3.5 N 22 33 12 18 1007.0 1006.3 1.2
23/01:00pm 23.7 23.8 20.0 80 2.4 N 19 26 10 14 1007.6 1006.9 1.2
23/12:30pm 23.4 24.6 20.7 85 1.8 N 15 26 8 14 1008.0 1007.3 1.2
23/12:00pm 23.1 22.1 19.7 81 2.2 N 24 37 13 20 1009.1 1008.4 0.4
23/11:30am 24.2 23.3 19.9 77 2.8 N 24 35 13 19 1009.0 1008.3 0.0
23/11:00am 23.9 23.9 19.8 78 2.7 N 19 26 10 14 1009.5 1008.8 0.0
23/10:30am 23.5 23.6 20.0 81 2.3 N 19 28 10 15 1010.1 1009.5 0.0
23/10:00am 22.5 23.5 20.2 87 1.5 NNW 15 20 8 11 1010.5 1009.9 0.0
23/09:30am 22.0 23.5 20.5 91 1.0 NNW 13 19 7 10 1010.8 1010.1 0.0
23/09:00am 21.3 23.0 20.1 93 0.8 NNW 11 17 6 9 1010.7 1010.0 0.0
23/08:30am 20.3 22.5 19.6 96 0.4 N 7 9 4 5 1010.4 1009.8 8.6
23/08:00am 19.8 21.8 19.1 96 0.4 N 7 9 4 5 1010.1 1009.5 8.6
23/07:30am 19.6 21.3 19.3 98 0.2 NNE 9 11 5 6 1009.9 1009.2 8.6
23/07:00am 19.4 22.6 18.9 97 0.3 CALM 0 7 0 4 1010.1 1009.5 8.4
23/06:30am 19.4 21.4 18.7 96 0.4 NNW 6 11 3 6 1010.0 1009.3 8.4
23/06:00am 19.4 21.2 18.7 96 0.4 W 7 9 4 5 1009.8 1009.1 8.4
23/05:30am 19.6 19.4 18.6 94 0.6 N 17 32 9 17 1009.1 1008.4 8.0
23/05:00am 20.2 20.4 19.4 95 0.5 NNE 17 22 9 12 1008.5 1007.8 6.2
23/04:30am 19.9 19.6 19.2 96 0.4 NNE 19 26 10 14 1008.3 1007.6 6.0
23/04:00am 19.8 20.6 19.0 95 0.5 NE 13 17 7 9 1008.1 1007.4 4.2
23/03:30am 19.3 19.3 19.0 98 0.2 NE 17 20 9 11 1007.9 1007.2 4.2
23/03:00am 19.2 21.2 18.7 97 0.3 NNW 6 7 3 4 1009.0 1008.3 4.0
23/02:30am 19.3 21.6 18.5 95 0.5 NW 4 7 2 4 1009.1 1008.4 3.6
23/02:00am 19.3 20.9 18.3 94 0.6 E 7 11 4 6 1008.7 1008.0 3.4
23/01:30am 19.2 20.5 18.5 96 0.4 ENE 9 13 5 7 1008.7 1008.0 3.4
23/01:00am 19.1 19.6 18.4 96 0.4 E 13 17 7 9 1008.8 1008.1 3.4
23/12:30am 19.2 20.1 18.5 96 0.4 ESE 11 15 6 8 1009.3 1008.6 3.4
23/12:00am 19.3 20.7 18.6 96 0.4 SSE 9 13 5 7 1010.4 1009.8 3.2
 
Date/Time
CST
Temp
°C
App
Temp
°C
Dew
Point
°C
Rel
Hum
%
Delta-T
°C
Wind Press
QNH
hPa
Press
MSL
hPa
Rain since
9am
mm
Dir  Spd
km/h
Gust
km/h
Spd
kts
Gust
kts
22/11:30pm 19.4 19.6 18.6 95 0.5 SSW 15 22 8 12 1010.9 1010.2 2.8
22/11:00pm 20.1 21.3 18.2 89 1.2 SW 9 11 5 6 1011.0 1010.3 2.0
22/10:30pm 21.1 22.4 17.1 78 2.5 SSE 6 7 3 4 1010.0 1009.3 0.4
22/10:00pm 20.9 21.5 16.9 78 2.5 SE 9 13 5 7 1009.8 1009.1 0.4
22/09:30pm 21.0 21.2 16.8 77 2.6 E 11 15 6 8 1009.9 1009.2 0.4
22/09:00pm 21.4 21.1 17.4 78 2.5 E 15 19 8 10 1009.9 1009.2 0.4
22/08:30pm 21.2 21.9 18.0 82 2.0 E 11 17 6 9 1009.7 1009.0 0.4
22/08:00pm 20.8 20.9 18.4 86 1.5 E 15 17 8 9 1009.2 1008.5 0.4
22/07:30pm 21.1 22.3 18.3 84 1.8 E 9 11 5 6 1009.4 1008.7 0.4
22/07:00pm 22.1 23.4 18.5 80 2.3 ENE 9 13 5 7 1009.2 1008.5 0.4
22/06:30pm 22.4 24.2 18.4 78 2.5 ESE 6 7 3 4 1009.0 1008.3 0.4
22/06:00pm 22.5 24.3 18.7 79 2.4 SSE 7 11 4 6 1008.8 1008.1 0.4
22/05:30pm 23.1 25.1 19.1 78 2.6 S 7 9 4 5 1008.5 1007.8 0.4
22/05:00pm 23.3 24.5 18.2 73 3.2 SSW 9 11 5 6 1008.4 1007.7 0.4
22/04:30pm 24.1 25.6 17.6 67 4.1 SSW 6 7 3 4 1008.7 1008.0 0.2
22/04:00pm 24.3 25.2 16.6 62 4.8 N 7 9 4 5 1008.8 1008.1 0.2
22/03:30pm 23.9 23.4 16.9 65 4.4 N 15 20 8 11 1008.6 1007.9 0.2
22/03:00pm 27.0 26.1 13.7 44 8.0 NNW 11 24 6 13 1008.0 1007.3 0.0
22/02:30pm 28.1 27.4 13.2 39 8.9 NNW 9 13 5 7 1008.3 1007.6 0.0
22/02:00pm 27.6 26.2 13.5 41 8.4 N 13 17 7 9 1008.8 1008.1 0.0
22/01:30pm 27.5 24.9 13.1 41 8.6 NNW 19 28 10 15 1009.2 1008.5 0.0
22/01:00pm 27.6 24.9 12.8 40 8.7 N 19 28 10 15 1009.4 1008.7 0.0
22/12:30pm 27.3 26.3 13.3 42 8.3 NW 11 22 6 12 1009.9 1009.2 0.0
22/12:00pm 26.2 26.0 14.6 48 7.0 NNW 9 13 5 7 1010.5 1009.9 0.0
22/11:30am 25.7 25.0 14.2 49 6.9 NNW 11 17 6 9 1011.1 1010.4 0.0
22/11:00am 26.0 25.0 14.5 49 6.9 NNW 13 19 7 10 1011.4 1010.7 0.0
22/10:30am 25.2 25.5 14.6 51 6.4 ENE 6 9 3 5 1011.7 1011.0 0.0
22/10:00am 23.9 24.0 14.0 54 5.9 ESE 6 9 3 5 1012.3 1011.6 0.0
22/09:30am 23.0 22.2 12.9 53 5.9 SE 9 11 5 6 1012.3 1011.6 0.0
22/09:00am 21.7 20.6 12.0 54 5.5 SSE 9 13 5 7 1012.2 1011.5 0.0
22/08:30am 20.3 18.4 11.8 58 4.8 S 13 15 7 8 1012.2 1011.5 0.0
22/08:00am 18.7 16.5 12.0 65 3.7 SSW 15 20 8 11 1012.2 1011.5 0.0
22/07:30am 17.6 17.6 13.5 77 2.3 S 6 9 3 5 1011.8 1011.1 0.0
22/07:00am 16.9 16.7 13.0 78 2.2 SW 6 6 3 3 1011.4 1010.7 0.0
22/06:30am 17.0 17.3 13.3 79 2.1 SSE 4 7 2 4 1011.0 1010.3 0.0
22/06:00am 18.5 17.0 11.8 65 3.7 SSW 11 20 6 11 1010.5 1009.9 0.0
22/05:30am 18.5 17.6 12.7 69 3.3 NE 9 13 5 7 1009.4 1008.7 0.0
22/05:00am 17.1 15.6 10.5 65 3.6 E 9 13 5 7 1009.3 1008.6 0.0
22/04:30am 18.1 16.4 11.2 64 3.8 ENE 11 15 6 8 1009.3 1008.6 0.0
22/04:00am 17.9 16.4 10.5 62 4.0 E 9 13 5 7 1009.4 1008.7 0.0
22/03:30am 17.9 14.8 10.3 61 4.1 E 17 22 9 12 1009.0 1008.3 0.0
22/03:00am 16.9 15.0 10.5 66 3.4 E 11 15 6 8 1009.9 1009.2 0.0
22/02:30am 17.5 16.5 11.1 66 3.5 NE 7 11 4 6 1010.3 1009.7 0.0
22/02:00am 17.1 15.8 10.0 63 3.8 E 7 9 4 5 1010.9 1010.2 0.0
22/01:30am 18.1 15.4 7.2 49 5.5 E 11 13 6 7 1011.2 1010.5 0.0
22/01:00am 18.6 15.8 5.1 41 6.6 SSE 9 13 5 7 1011.8 1011.1 0.0
22/12:30am 19.4 15.1 5.1 39 7.0 S 17 22 9 12 1011.9 1011.2 0.0
22/12:00am 19.8 16.8 6.2 41 6.9 SSW 11 15 6 8 1012.4 1011.7 0.0
 
Date/Time
CST
Temp
°C
App
Temp
°C
Dew
Point
°C
Rel
Hum
%
Delta-T
°C
Wind Press
QNH
hPa
Press
MSL
hPa
Rain since
9am
mm
Dir  Spd
km/h
Gust
km/h
Spd
kts
Gust
kts
21/11:30pm 20.5 16.6 5.3 37 7.6 S 15 20 8 11 1012.5 1011.8 0.0
21/11:00pm 20.9 17.8 7.2 41 7.1 SSE 13 17 7 9 1012.8 1012.1 0.0
21/10:30pm 20.2 17.5 8.8 48 6.1 NE 13 24 7 13 1013.1 1012.4 0.0
21/10:00pm 21.8 19.4 5.3 34 8.3 S 7 11 4 6 1012.8 1012.1 0.0
21/09:30pm 22.3 18.8 3.4 29 9.2 SSE 11 17 6 9 1012.4 1011.7 0.0
21/09:00pm 22.3 18.4 3.4 29 9.2 SE 13 17 7 9 1012.1 1011.4 0.0
21/08:30pm 22.3 18.3 2.9 28 9.4 SSE 13 22 7 12 1011.8 1011.1 0.0
21/08:00pm 22.4 18.1 3.0 28 9.4 S 15 20 8 11 1011.3 1010.6 0.0
21/07:30pm 22.7 17.0 2.8 27 9.6 S 22 30 12 16 1010.5 1009.9 0.0
21/07:00pm 23.4 18.1 2.8 26 10.0 S 20 28 11 15 1010.7 1010.0 0.0
21/06:30pm 24.2 18.6 3.5 26 10.2 S 22 30 12 16 1010.3 1009.7 0.0
21/06:12pm 25.0 18.2 3.0 24 10.8 SSW 28 35 15 19 1010.0 1009.3 0.0
21/06:00pm 28.2 27.2 5.7 24 11.8 CALM 0 6 0 3 1009.7 1009.0 0.0
21/05:30pm 29.2 26.0 5.3 22 12.6 NW 11 15 6 8 1009.5 1008.8 0.0
21/05:00pm 29.6 26.9 5.6 22 12.7 NNW 9 15 5 8 1009.5 1008.8 0.0
21/04:30pm 29.9 27.1 5.2 21 13.0 N 9 13 5 7 1009.5 1008.8 0.0
21/04:00pm 29.9 27.0 4.5 20 13.2 N 9 15 5 8 1009.5 1008.8 0.0
21/03:30pm 30.1 26.1 4.7 20 13.3 N 15 22 8 12 1009.6 1008.9 0.0

Other Formats:

Comma delimited format used in spreadsheet applications
http://www.bom.gov.au/fwo/IDD60801/IDD60801.94255.axf

JavaScript Object Notation format (JSON) in row-major order
http://www.bom.gov.au/fwo/IDD60801/IDD60801.94255.json